sensor_id;sensor_type;location;lat;lon;timestamp;P1;durP1;ratioP1;P2;durP2;ratioP2
68655;SDS011;55638;51.122;13.606;2022-11-18T00:00:35;23.30;;;21.50;;
68655;SDS011;55638;51.122;13.606;2022-11-18T00:02:07;24.42;;;22.45;;
68655;SDS011;55638;51.122;13.606;2022-11-18T00:03:39;24.05;;;22.25;;
68655;SDS011;55638;51.122;13.606;2022-11-18T00:05:12;23.13;;;21.38;;
68655;SDS011;55638;51.122;13.606;2022-11-18T00:06:43;22.45;;;20.75;;
68655;SDS011;55638;51.122;13.606;2022-11-18T00:08:15;23.63;;;21.73;;
68655;SDS011;55638;51.122;13.606;2022-11-18T00:09:47;23.80;;;22.00;;
68655;SDS011;55638;51.122;13.606;2022-11-18T00:11:20;22.98;;;21.27;;
68655;SDS011;55638;51.122;13.606;2022-11-18T00:13:12;21.48;;;19.77;;
68655;SDS011;55638;51.122;13.606;2022-11-18T00:15:03;22.95;;;21.20;;
68655;SDS011;55638;51.122;13.606;2022-11-18T00:16:35;23.27;;;21.38;;
68655;SDS011;55638;51.122;13.606;2022-11-18T00:18:07;22.92;;;21.23;;
68655;SDS011;55638;51.122;13.606;2022-11-18T00:19:39;22.38;;;20.63;;
68655;SDS011;55638;51.122;13.606;2022-11-18T00:21:11;23.90;;;21.95;;
68655;SDS011;55638;51.122;13.606;2022-11-18T00:22:44;22.08;;;20.35;;
68655;SDS011;55638;51.122;13.606;2022-11-18T00:24:16;24.13;;;22.35;;
68655;SDS011;55638;51.122;13.606;2022-11-18T00:25:48;22.55;;;20.85;;
68655;SDS011;55638;51.122;13.606;2022-11-18T00:27:20;24.73;;;22.83;;
68655;SDS011;55638;51.122;13.606;2022-11-18T00:28:52;24.95;;;22.95;;
68655;SDS011;55638;51.122;13.606;2022-11-18T00:30:23;26.25;;;24.35;;
68655;SDS011;55638;51.122;13.606;2022-11-18T00:31:55;24.63;;;22.83;;
68655;SDS011;55638;51.122;13.606;2022-11-18T00:33:28;24.23;;;22.33;;
68655;SDS011;55638;51.122;13.606;2022-11-18T00:35:00;23.48;;;21.58;;
68655;SDS011;55638;51.122;13.606;2022-11-18T00:36:32;23.75;;;21.95;;
68655;SDS011;55638;51.122;13.606;2022-11-18T00:38:03;26.10;;;24.20;;
68655;SDS011;55638;51.122;13.606;2022-11-18T00:39:35;24.98;;;23.08;;
68655;SDS011;55638;51.122;13.606;2022-11-18T00:41:08;23.48;;;21.58;;
68655;SDS011;55638;51.122;13.606;2022-11-18T00:42:42;26.17;;;24.20;;
68655;SDS011;55638;51.122;13.606;2022-11-18T00:44:22;24.17;;;22.27;;
68655;SDS011;55638;51.122;13.606;2022-11-18T00:45:54;23.05;;;21.23;;
68655;SDS011;55638;51.122;13.606;2022-11-18T00:47:27;23.13;;;21.33;;
68655;SDS011;55638;51.122;13.606;2022-11-18T00:48:58;23.23;;;21.38;;
68655;SDS011;55638;51.122;13.606;2022-11-18T00:50:30;24.52;;;22.67;;
68655;SDS011;55638;51.122;13.606;2022-11-18T00:52:03;27.88;;;25.98;;
68655;SDS011;55638;51.122;13.606;2022-11-18T00:53:36;27.17;;;25.00;;
68655;SDS011;55638;51.122;13.606;2022-11-18T00:55:08;25.73;;;23.77;;
68655;SDS011;55638;51.122;13.606;2022-11-18T00:56:40;24.80;;;22.70;;
68655;SDS011;55638;51.122;13.606;2022-11-18T00:58:12;28.30;;;26.20;;
68655;SDS011;55638;51.122;13.606;2022-11-18T00:59:46;31.13;;;28.83;;
68655;SDS011;55638;51.122;13.606;2022-11-18T01:01:18;27.58;;;25.27;;
68655;SDS011;55638;51.122;13.606;2022-11-18T01:02:50;25.38;;;23.33;;
68655;SDS011;55638;51.122;13.606;2022-11-18T01:04:21;26.17;;;24.08;;
68655;SDS011;55638;51.122;13.606;2022-11-18T01:05:53;22.83;;;21.08;;
68655;SDS011;55638;51.122;13.606;2022-11-18T01:07:25;25.10;;;23.30;;
68655;SDS011;55638;51.122;13.606;2022-11-18T01:08:57;24.98;;;23.08;;
68655;SDS011;55638;51.122;13.606;2022-11-18T01:10:29;23.27;;;21.50;;
68655;SDS011;55638;51.122;13.606;2022-11-18T01:12:01;24.20;;;22.30;;
68655;SDS011;55638;51.122;13.606;2022-11-18T01:13:51;22.98;;;21.27;;
68655;SDS011;55638;51.122;13.606;2022-11-18T01:15:25;22.92;;;21.02;;
68655;SDS011;55638;51.122;13.606;2022-11-18T01:16:57;22.95;;;21.00;;
68655;SDS011;55638;51.122;13.606;2022-11-18T01:18:29;24.35;;;22.45;;
68655;SDS011;55638;51.122;13.606;2022-11-18T01:20:01;23.17;;;21.38;;
68655;SDS011;55638;51.122;13.606;2022-11-18T01:21:33;25.30;;;23.40;;
68655;SDS011;55638;51.122;13.606;2022-11-18T01:23:05;23.27;;;21.48;;
68655;SDS011;55638;51.122;13.606;2022-11-18T01:24:37;24.38;;;22.58;;
68655;SDS011;55638;51.122;13.606;2022-11-18T01:26:10;24.52;;;22.65;;
68655;SDS011;55638;51.122;13.606;2022-11-18T01:27:43;24.40;;;22.40;;
68655;SDS011;55638;51.122;13.606;2022-11-18T01:29:14;22.48;;;20.65;;
68655;SDS011;55638;51.122;13.606;2022-11-18T01:30:48;23.05;;;21.20;;
68655;SDS011;55638;51.122;13.606;2022-11-18T01:32:19;23.10;;;21.27;;
68655;SDS011;55638;51.122;13.606;2022-11-18T01:33:56;21.33;;;19.52;;
68655;SDS011;55638;51.122;13.606;2022-11-18T01:35:28;22.65;;;20.92;;
68655;SDS011;55638;51.122;13.606;2022-11-18T01:37:00;21.63;;;19.98;;
68655;SDS011;55638;51.122;13.606;2022-11-18T01:38:32;22.75;;;21.00;;
68655;SDS011;55638;51.122;13.606;2022-11-18T01:40:04;23.17;;;21.38;;
68655;SDS011;55638;51.122;13.606;2022-11-18T01:41:38;23.77;;;21.98;;
68655;SDS011;55638;51.122;13.606;2022-11-18T01:43:13;20.42;;;18.70;;
68655;SDS011;55638;51.122;13.606;2022-11-18T01:46:31;22.55;;;20.75;;
68655;SDS011;55638;51.122;13.606;2022-11-18T01:49:44;23.85;;;21.95;;
68655;SDS011;55638;51.122;13.606;2022-11-18T01:51:18;24.10;;;22.10;;
68655;SDS011;55638;51.122;13.606;2022-11-18T01:52:54;23.65;;;21.73;;
68655;SDS011;55638;51.122;13.606;2022-11-18T01:54:33;23.42;;;21.58;;
68655;SDS011;55638;51.122;13.606;2022-11-18T01:56:09;24.77;;;22.70;;
68655;SDS011;55638;51.122;13.606;2022-11-18T01:57:44;22.98;;;21.17;;
68655;SDS011;55638;51.122;13.606;2022-11-18T01:59:20;21.83;;;20.15;;
68655;SDS011;55638;51.122;13.606;2022-11-18T02:00:55;22.00;;;20.20;;
68655;SDS011;55638;51.122;13.606;2022-11-18T02:02:29;23.08;;;21.17;;
68655;SDS011;55638;51.122;13.606;2022-11-18T02:04:03;23.65;;;21.88;;
68655;SDS011;55638;51.122;13.606;2022-11-18T02:05:36;21.52;;;19.75;;
68655;SDS011;55638;51.122;13.606;2022-11-18T02:07:09;23.25;;;21.48;;
68655;SDS011;55638;51.122;13.606;2022-11-18T02:08:42;22.88;;;21.10;;
68655;SDS011;55638;51.122;13.606;2022-11-18T02:10:16;22.80;;;21.02;;
68655;SDS011;55638;51.122;13.606;2022-11-18T02:11:52;22.33;;;20.48;;
68655;SDS011;55638;51.122;13.606;2022-11-18T02:13:25;23.02;;;21.25;;
68655;SDS011;55638;51.122;13.606;2022-11-18T02:14:57;23.40;;;21.60;;
68655;SDS011;55638;51.122;13.606;2022-11-18T02:16:36;23.05;;;21.25;;
68655;SDS011;55638;51.122;13.606;2022-11-18T02:18:13;21.23;;;19.52;;
68655;SDS011;55638;51.122;13.606;2022-11-18T02:29:55;21.23;;;19.55;;
68655;SDS011;55638;51.122;13.606;2022-11-18T02:33:40;22.95;;;21.05;;
68655;SDS011;55638;51.122;13.606;2022-11-18T02:35:15;20.20;;;18.60;;
68655;SDS011;55638;51.122;13.606;2022-11-18T02:36:58;20.02;;;18.42;;
68655;SDS011;55638;51.122;13.606;2022-11-18T02:38:38;22.65;;;20.88;;
68655;SDS011;55638;51.122;13.606;2022-11-18T02:40:16;22.00;;;20.25;;
68655;SDS011;55638;51.122;13.606;2022-11-18T02:41:53;21.50;;;19.70;;
68655;SDS011;55638;51.122;13.606;2022-11-18T02:43:29;22.05;;;20.20;;
68655;SDS011;55638;51.122;13.606;2022-11-18T02:45:05;21.60;;;19.80;;
68655;SDS011;55638;51.122;13.606;2022-11-18T02:46:41;22.30;;;20.55;;
68655;SDS011;55638;51.122;13.606;2022-11-18T02:48:18;21.65;;;20.00;;
68655;SDS011;55638;51.122;13.606;2022-11-18T02:49:54;22.08;;;20.30;;
68655;SDS011;55638;51.122;13.606;2022-11-18T02:51:31;22.42;;;20.65;;
68655;SDS011;55638;51.122;13.606;2022-11-18T02:53:05;21.33;;;19.63;;
68655;SDS011;55638;51.122;13.606;2022-11-18T02:54:39;22.52;;;20.65;;
68655;SDS011;55638;51.122;13.606;2022-11-18T02:56:14;22.83;;;20.92;;
68655;SDS011;55638;51.122;13.606;2022-11-18T02:57:47;23.85;;;21.95;;
68655;SDS011;55638;51.122;13.606;2022-11-18T02:59:19;23.50;;;21.70;;
68655;SDS011;55638;51.122;13.606;2022-11-18T03:00:52;24.33;;;22.40;;
68655;SDS011;55638;51.122;13.606;2022-11-18T03:02:25;22.98;;;21.17;;
68655;SDS011;55638;51.122;13.606;2022-11-18T03:03:56;22.15;;;20.45;;
68655;SDS011;55638;51.122;13.606;2022-11-18T03:05:34;21.58;;;19.92;;
68655;SDS011;55638;51.122;13.606;2022-11-18T03:08:58;20.13;;;18.70;;
68655;SDS011;55638;51.122;13.606;2022-11-18T03:10:39;22.33;;;20.38;;
68655;SDS011;55638;51.122;13.606;2022-11-18T03:15:58;20.85;;;19.15;;
68655;SDS011;55638;51.122;13.606;2022-11-18T03:17:39;24.27;;;22.33;;
68655;SDS011;55638;51.122;13.606;2022-11-18T03:21:28;20.45;;;18.73;;
68655;SDS011;55638;51.122;13.606;2022-11-18T03:23:10;23.25;;;21.45;;
68655;SDS011;55638;51.122;13.606;2022-11-18T03:24:54;23.08;;;21.25;;
68655;SDS011;55638;51.122;13.606;2022-11-18T03:26:30;21.88;;;20.00;;
68655;SDS011;55638;51.122;13.606;2022-11-18T03:29:58;21.70;;;19.95;;
68655;SDS011;55638;51.122;13.606;2022-11-18T03:31:49;21.80;;;20.20;;
68655;SDS011;55638;51.122;13.606;2022-11-18T03:33:28;20.73;;;19.02;;
68655;SDS011;55638;51.122;13.606;2022-11-18T03:35:07;22.30;;;20.60;;
68655;SDS011;55638;51.122;13.606;2022-11-18T03:36:46;22.88;;;21.10;;
68655;SDS011;55638;51.122;13.606;2022-11-18T03:38:25;20.73;;;19.02;;
68655;SDS011;55638;51.122;13.606;2022-11-18T03:40:03;20.55;;;18.95;;
68655;SDS011;55638;51.122;13.606;2022-11-18T03:41:43;23.35;;;21.45;;
68655;SDS011;55638;51.122;13.606;2022-11-18T03:43:21;22.25;;;20.27;;
68655;SDS011;55638;51.122;13.606;2022-11-18T03:45:00;22.70;;;20.63;;
68655;SDS011;55638;51.122;13.606;2022-11-18T03:46:38;24.02;;;22.05;;
68655;SDS011;55638;51.122;13.606;2022-11-18T03:48:24;21.70;;;19.85;;
68655;SDS011;55638;51.122;13.606;2022-11-18T03:50:00;21.60;;;19.85;;
68655;SDS011;55638;51.122;13.606;2022-11-18T03:51:41;22.08;;;20.38;;
68655;SDS011;55638;51.122;13.606;2022-11-18T03:53:18;21.02;;;19.23;;
68655;SDS011;55638;51.122;13.606;2022-11-18T03:54:51;21.23;;;19.58;;
68655;SDS011;55638;51.122;13.606;2022-11-18T03:56:31;21.58;;;19.67;;
68655;SDS011;55638;51.122;13.606;2022-11-18T04:01:20;20.08;;;18.15;;
68655;SDS011;55638;51.122;13.606;2022-11-18T04:06:05;21.52;;;19.55;;
68655;SDS011;55638;51.122;13.606;2022-11-18T04:09:34;22.02;;;20.10;;
68655;SDS011;55638;51.122;13.606;2022-11-18T04:11:13;24.17;;;21.98;;
68655;SDS011;55638;51.122;13.606;2022-11-18T04:13:14;24.13;;;21.95;;
68655;SDS011;55638;51.122;13.606;2022-11-18T04:14:48;25.85;;;23.60;;
68655;SDS011;55638;51.122;13.606;2022-11-18T04:16:22;26.67;;;24.10;;
68655;SDS011;55638;51.122;13.606;2022-11-18T04:17:54;23.42;;;21.27;;
68655;SDS011;55638;51.122;13.606;2022-11-18T04:19:26;22.67;;;20.77;;
68655;SDS011;55638;51.122;13.606;2022-11-18T04:20:58;24.13;;;21.95;;
68655;SDS011;55638;51.122;13.606;2022-11-18T04:22:30;23.15;;;21.02;;
68655;SDS011;55638;51.122;13.606;2022-11-18T04:24:02;26.73;;;24.35;;
68655;SDS011;55638;51.122;13.606;2022-11-18T04:25:34;27.30;;;24.80;;
68655;SDS011;55638;51.122;13.606;2022-11-18T04:27:06;24.05;;;21.85;;
68655;SDS011;55638;51.122;13.606;2022-11-18T04:28:38;25.95;;;23.65;;
68655;SDS011;55638;51.122;13.606;2022-11-18T04:30:10;24.40;;;22.10;;
68655;SDS011;55638;51.122;13.606;2022-11-18T04:31:42;26.90;;;24.40;;
68655;SDS011;55638;51.122;13.606;2022-11-18T04:33:14;27.88;;;25.50;;
68655;SDS011;55638;51.122;13.606;2022-11-18T04:34:46;26.88;;;24.48;;
68655;SDS011;55638;51.122;13.606;2022-11-18T04:36:18;27.50;;;25.05;;
68655;SDS011;55638;51.122;13.606;2022-11-18T04:37:50;27.65;;;25.25;;
68655;SDS011;55638;51.122;13.606;2022-11-18T04:39:22;25.77;;;23.38;;
68655;SDS011;55638;51.122;13.606;2022-11-18T04:40:53;24.80;;;22.40;;
68655;SDS011;55638;51.122;13.606;2022-11-18T04:42:25;25.48;;;23.27;;
68655;SDS011;55638;51.122;13.606;2022-11-18T04:43:57;27.63;;;25.10;;
68655;SDS011;55638;51.122;13.606;2022-11-18T04:45:29;27.27;;;24.77;;
68655;SDS011;55638;51.122;13.606;2022-11-18T04:47:02;25.00;;;22.75;;
68655;SDS011;55638;51.122;13.606;2022-11-18T04:48:35;26.90;;;24.35;;
68655;SDS011;55638;51.122;13.606;2022-11-18T04:50:07;27.10;;;24.58;;
68655;SDS011;55638;51.122;13.606;2022-11-18T04:51:40;27.70;;;25.00;;
68655;SDS011;55638;51.122;13.606;2022-11-18T04:53:12;26.80;;;24.05;;
68655;SDS011;55638;51.122;13.606;2022-11-18T04:54:44;28.38;;;25.83;;
68655;SDS011;55638;51.122;13.606;2022-11-18T04:56:17;29.15;;;26.40;;
68655;SDS011;55638;51.122;13.606;2022-11-18T04:57:48;26.00;;;23.65;;
68655;SDS011;55638;51.122;13.606;2022-11-18T04:59:21;28.25;;;25.67;;
68655;SDS011;55638;51.122;13.606;2022-11-18T05:00:55;31.70;;;28.70;;
68655;SDS011;55638;51.122;13.606;2022-11-18T05:02:27;26.15;;;23.75;;
68655;SDS011;55638;51.122;13.606;2022-11-18T05:03:59;30.88;;;27.83;;
68655;SDS011;55638;51.122;13.606;2022-11-18T05:05:33;30.05;;;27.25;;
68655;SDS011;55638;51.122;13.606;2022-11-18T05:07:05;33.15;;;30.27;;
68655;SDS011;55638;51.122;13.606;2022-11-18T05:08:38;29.98;;;27.33;;
68655;SDS011;55638;51.122;13.606;2022-11-18T05:10:10;30.85;;;28.02;;
68655;SDS011;55638;51.122;13.606;2022-11-18T05:11:42;24.23;;;21.85;;
68655;SDS011;55638;51.122;13.606;2022-11-18T05:13:32;27.13;;;24.53;;
68655;SDS011;55638;51.122;13.606;2022-11-18T05:15:04;25.83;;;23.48;;
68655;SDS011;55638;51.122;13.606;2022-11-18T05:16:36;27.15;;;24.55;;
68655;SDS011;55638;51.122;13.606;2022-11-18T05:18:09;29.80;;;26.95;;
68655;SDS011;55638;51.122;13.606;2022-11-18T05:19:41;29.17;;;26.42;;
68655;SDS011;55638;51.122;13.606;2022-11-18T05:21:13;30.63;;;27.73;;
68655;SDS011;55638;51.122;13.606;2022-11-18T05:22:45;31.67;;;28.73;;
68655;SDS011;55638;51.122;13.606;2022-11-18T05:24:16;30.25;;;27.45;;
68655;SDS011;55638;51.122;13.606;2022-11-18T05:25:48;28.77;;;25.98;;
68655;SDS011;55638;51.122;13.606;2022-11-18T05:27:20;28.70;;;26.08;;
68655;SDS011;55638;51.122;13.606;2022-11-18T05:28:52;27.75;;;25.15;;
68655;SDS011;55638;51.122;13.606;2022-11-18T05:30:24;28.10;;;25.40;;
68655;SDS011;55638;51.122;13.606;2022-11-18T05:31:56;30.70;;;27.80;;
68655;SDS011;55638;51.122;13.606;2022-11-18T05:33:27;30.88;;;28.00;;
68655;SDS011;55638;51.122;13.606;2022-11-18T05:34:59;34.33;;;31.10;;
68655;SDS011;55638;51.122;13.606;2022-11-18T05:36:31;27.10;;;24.25;;
68655;SDS011;55638;51.122;13.606;2022-11-18T05:38:03;29.17;;;26.27;;
68655;SDS011;55638;51.122;13.606;2022-11-18T05:39:34;39.53;;;36.03;;
68655;SDS011;55638;51.122;13.606;2022-11-18T05:41:07;27.92;;;25.13;;
68655;SDS011;55638;51.122;13.606;2022-11-18T05:42:39;29.27;;;26.52;;
68655;SDS011;55638;51.122;13.606;2022-11-18T05:44:29;26.80;;;24.15;;
68655;SDS011;55638;51.122;13.606;2022-11-18T05:46:02;29.88;;;27.05;;
68655;SDS011;55638;51.122;13.606;2022-11-18T05:47:34;29.98;;;26.88;;
68655;SDS011;55638;51.122;13.606;2022-11-18T05:49:26;25.15;;;22.55;;
68655;SDS011;55638;51.122;13.606;2022-11-18T05:50:58;27.88;;;25.05;;
68655;SDS011;55638;51.122;13.606;2022-11-18T05:52:30;27.58;;;24.80;;
68655;SDS011;55638;51.122;13.606;2022-11-18T05:54:02;27.88;;;25.02;;
68655;SDS011;55638;51.122;13.606;2022-11-18T05:55:37;29.02;;;26.33;;
68655;SDS011;55638;51.122;13.606;2022-11-18T05:57:12;29.35;;;26.35;;
68655;SDS011;55638;51.122;13.606;2022-11-18T05:58:44;38.58;;;35.13;;
68655;SDS011;55638;51.122;13.606;2022-11-18T06:00:16;29.15;;;26.05;;
68655;SDS011;55638;51.122;13.606;2022-11-18T06:03:24;28.40;;;25.60;;
68655;SDS011;55638;51.122;13.606;2022-11-18T06:05:01;29.90;;;26.85;;
68655;SDS011;55638;51.122;13.606;2022-11-18T06:06:35;25.15;;;22.77;;
68655;SDS011;55638;51.122;13.606;2022-11-18T06:08:07;29.42;;;26.55;;
68655;SDS011;55638;51.122;13.606;2022-11-18T06:09:44;27.73;;;25.08;;
68655;SDS011;55638;51.122;13.606;2022-11-18T06:11:19;27.38;;;24.67;;
68655;SDS011;55638;51.122;13.606;2022-11-18T06:12:53;26.77;;;24.23;;
68655;SDS011;55638;51.122;13.606;2022-11-18T06:14:32;29.27;;;26.48;;
68655;SDS011;55638;51.122;13.606;2022-11-18T06:16:12;28.52;;;25.77;;
68655;SDS011;55638;51.122;13.606;2022-11-18T06:19:26;24.95;;;22.65;;
68655;SDS011;55638;51.122;13.606;2022-11-18T06:21:02;24.50;;;22.15;;
68655;SDS011;55638;51.122;13.606;2022-11-18T06:22:35;24.77;;;22.45;;
68655;SDS011;55638;51.122;13.606;2022-11-18T06:24:15;23.13;;;21.02;;
68655;SDS011;55638;51.122;13.606;2022-11-18T06:25:48;24.92;;;22.58;;
68655;SDS011;55638;51.122;13.606;2022-11-18T06:27:20;24.02;;;21.83;;
68655;SDS011;55638;51.122;13.606;2022-11-18T06:28:52;23.38;;;21.30;;
68655;SDS011;55638;51.122;13.606;2022-11-18T06:30:26;24.15;;;21.90;;
68655;SDS011;55638;51.122;13.606;2022-11-18T06:31:58;22.92;;;20.95;;
68655;SDS011;55638;51.122;13.606;2022-11-18T06:33:30;22.95;;;21.08;;
68655;SDS011;55638;51.122;13.606;2022-11-18T06:35:01;22.10;;;20.27;;
68655;SDS011;55638;51.122;13.606;2022-11-18T06:36:33;23.45;;;21.25;;
68655;SDS011;55638;51.122;13.606;2022-11-18T06:38:05;23.63;;;21.50;;
68655;SDS011;55638;51.122;13.606;2022-11-18T06:39:37;24.27;;;21.98;;
68655;SDS011;55638;51.122;13.606;2022-11-18T06:41:09;23.40;;;21.20;;
68655;SDS011;55638;51.122;13.606;2022-11-18T06:42:40;24.27;;;22.15;;
68655;SDS011;55638;51.122;13.606;2022-11-18T06:44:31;22.30;;;20.38;;
68655;SDS011;55638;51.122;13.606;2022-11-18T06:46:03;24.05;;;21.73;;
68655;SDS011;55638;51.122;13.606;2022-11-18T06:47:55;25.85;;;23.33;;
68655;SDS011;55638;51.122;13.606;2022-11-18T06:49:28;26.13;;;23.92;;
68655;SDS011;55638;51.122;13.606;2022-11-18T06:51:03;25.48;;;23.05;;
68655;SDS011;55638;51.122;13.606;2022-11-18T06:52:35;25.73;;;23.20;;
68655;SDS011;55638;51.122;13.606;2022-11-18T06:54:07;24.80;;;22.40;;
68655;SDS011;55638;51.122;13.606;2022-11-18T06:55:41;25.10;;;22.92;;
68655;SDS011;55638;51.122;13.606;2022-11-18T06:57:13;25.45;;;23.00;;
68655;SDS011;55638;51.122;13.606;2022-11-18T06:58:45;25.60;;;23.17;;
68655;SDS011;55638;51.122;13.606;2022-11-18T07:00:17;24.88;;;22.60;;
68655;SDS011;55638;51.122;13.606;2022-11-18T07:01:49;22.38;;;20.48;;
68655;SDS011;55638;51.122;13.606;2022-11-18T07:03:23;24.05;;;21.98;;
68655;SDS011;55638;51.122;13.606;2022-11-18T07:04:55;27.60;;;25.10;;
68655;SDS011;55638;51.122;13.606;2022-11-18T07:06:28;24.92;;;22.48;;
68655;SDS011;55638;51.122;13.606;2022-11-18T07:08:02;25.77;;;23.50;;
68655;SDS011;55638;51.122;13.606;2022-11-18T07:09:34;23.42;;;21.23;;
68655;SDS011;55638;51.122;13.606;2022-11-18T07:11:08;22.30;;;20.25;;
68655;SDS011;55638;51.122;13.606;2022-11-18T07:12:42;23.48;;;21.27;;
68655;SDS011;55638;51.122;13.606;2022-11-18T07:14:14;22.55;;;20.52;;
68655;SDS011;55638;51.122;13.606;2022-11-18T07:15:46;23.17;;;21.17;;
68655;SDS011;55638;51.122;13.606;2022-11-18T07:17:18;23.48;;;21.52;;
68655;SDS011;55638;51.122;13.606;2022-11-18T07:18:50;22.75;;;20.85;;
68655;SDS011;55638;51.122;13.606;2022-11-18T07:20:23;23.08;;;20.85;;
68655;SDS011;55638;51.122;13.606;2022-11-18T07:21:55;25.90;;;23.52;;
68655;SDS011;55638;51.122;13.606;2022-11-18T07:23:27;24.38;;;22.40;;
68655;SDS011;55638;51.122;13.606;2022-11-18T07:25:00;24.75;;;22.75;;
68655;SDS011;55638;51.122;13.606;2022-11-18T07:26:32;22.30;;;20.42;;
68655;SDS011;55638;51.122;13.606;2022-11-18T07:28:05;23.67;;;21.77;;
68655;SDS011;55638;51.122;13.606;2022-11-18T07:29:37;22.42;;;20.52;;
68655;SDS011;55638;51.122;13.606;2022-11-18T07:31:12;23.75;;;21.75;;
68655;SDS011;55638;51.122;13.606;2022-11-18T07:32:46;22.90;;;21.00;;
68655;SDS011;55638;51.122;13.606;2022-11-18T07:34:17;22.33;;;20.35;;
68655;SDS011;55638;51.122;13.606;2022-11-18T07:35:49;21.38;;;19.67;;
68655;SDS011;55638;51.122;13.606;2022-11-18T07:37:21;22.35;;;20.55;;
68655;SDS011;55638;51.122;13.606;2022-11-18T07:38:53;21.42;;;19.63;;
68655;SDS011;55638;51.122;13.606;2022-11-18T07:40:25;24.33;;;22.13;;
68655;SDS011;55638;51.122;13.606;2022-11-18T07:41:57;21.83;;;19.83;;
68655;SDS011;55638;51.122;13.606;2022-11-18T07:43:29;23.42;;;21.42;;
68655;SDS011;55638;51.122;13.606;2022-11-18T07:45:01;25.20;;;23.10;;
68655;SDS011;55638;51.122;13.606;2022-11-18T07:46:34;22.90;;;21.10;;
68655;SDS011;55638;51.122;13.606;2022-11-18T07:48:08;22.75;;;20.90;;
68655;SDS011;55638;51.122;13.606;2022-11-18T07:49:40;21.02;;;19.27;;
68655;SDS011;55638;51.122;13.606;2022-11-18T07:51:13;23.35;;;21.42;;
68655;SDS011;55638;51.122;13.606;2022-11-18T07:52:47;22.85;;;21.05;;
68655;SDS011;55638;51.122;13.606;2022-11-18T07:54:18;23.88;;;21.85;;
68655;SDS011;55638;51.122;13.606;2022-11-18T07:55:50;25.60;;;23.40;;
68655;SDS011;55638;51.122;13.606;2022-11-18T07:57:22;22.23;;;20.23;;
68655;SDS011;55638;51.122;13.606;2022-11-18T07:58:54;23.38;;;21.38;;
68655;SDS011;55638;51.122;13.606;2022-11-18T08:00:26;24.30;;;22.15;;
68655;SDS011;55638;51.122;13.606;2022-11-18T08:01:58;25.08;;;22.88;;
68655;SDS011;55638;51.122;13.606;2022-11-18T08:03:30;34.38;;;31.55;;
68655;SDS011;55638;51.122;13.606;2022-11-18T08:05:02;25.48;;;23.08;;
68655;SDS011;55638;51.122;13.606;2022-11-18T08:06:34;25.05;;;22.85;;
68655;SDS011;55638;51.122;13.606;2022-11-18T08:08:07;25.58;;;23.27;;
68655;SDS011;55638;51.122;13.606;2022-11-18T08:09:39;25.55;;;23.35;;
68655;SDS011;55638;51.122;13.606;2022-11-18T08:11:12;24.15;;;22.17;;
68655;SDS011;55638;51.122;13.606;2022-11-18T08:12:52;23.85;;;21.77;;
68655;SDS011;55638;51.122;13.606;2022-11-18T08:14:25;25.13;;;22.92;;
68655;SDS011;55638;51.122;13.606;2022-11-18T08:15:57;26.20;;;23.90;;
68655;SDS011;55638;51.122;13.606;2022-11-18T08:17:29;25.70;;;23.50;;
68655;SDS011;55638;51.122;13.606;2022-11-18T08:19:03;26.27;;;23.98;;
68655;SDS011;55638;51.122;13.606;2022-11-18T08:20:34;21.85;;;19.90;;
68655;SDS011;55638;51.122;13.606;2022-11-18T08:22:06;23.17;;;21.17;;
68655;SDS011;55638;51.122;13.606;2022-11-18T08:23:38;23.77;;;21.83;;
68655;SDS011;55638;51.122;13.606;2022-11-18T08:25:13;24.85;;;22.63;;
68655;SDS011;55638;51.122;13.606;2022-11-18T08:26:45;27.25;;;24.75;;
68655;SDS011;55638;51.122;13.606;2022-11-18T08:28:17;24.63;;;22.23;;
68655;SDS011;55638;51.122;13.606;2022-11-18T08:29:49;23.70;;;21.70;;
68655;SDS011;55638;51.122;13.606;2022-11-18T08:31:22;24.80;;;22.75;;
68655;SDS011;55638;51.122;13.606;2022-11-18T08:32:55;24.77;;;22.58;;
68655;SDS011;55638;51.122;13.606;2022-11-18T08:34:27;24.75;;;22.35;;
68655;SDS011;55638;51.122;13.606;2022-11-18T08:36:04;24.17;;;21.90;;
68655;SDS011;55638;51.122;13.606;2022-11-18T08:37:39;26.10;;;24.00;;
68655;SDS011;55638;51.122;13.606;2022-11-18T08:39:11;25.23;;;22.92;;
68655;SDS011;55638;51.122;13.606;2022-11-18T08:40:44;28.05;;;25.65;;
68655;SDS011;55638;51.122;13.606;2022-11-18T08:42:18;27.42;;;24.90;;
68655;SDS011;55638;51.122;13.606;2022-11-18T08:43:55;24.10;;;22.02;;
68655;SDS011;55638;51.122;13.606;2022-11-18T08:45:27;25.50;;;23.20;;
68655;SDS011;55638;51.122;13.606;2022-11-18T08:46:59;26.23;;;23.92;;
68655;SDS011;55638;51.122;13.606;2022-11-18T08:48:31;24.50;;;22.48;;
68655;SDS011;55638;51.122;13.606;2022-11-18T08:50:03;27.25;;;24.60;;
68655;SDS011;55638;51.122;13.606;2022-11-18T08:51:36;26.25;;;23.95;;
68655;SDS011;55638;51.122;13.606;2022-11-18T08:53:08;24.13;;;21.95;;
68655;SDS011;55638;51.122;13.606;2022-11-18T08:54:39;26.45;;;24.05;;
68655;SDS011;55638;51.122;13.606;2022-11-18T08:56:12;24.33;;;22.02;;
68655;SDS011;55638;51.122;13.606;2022-11-18T08:57:46;23.48;;;21.38;;
68655;SDS011;55638;51.122;13.606;2022-11-18T08:59:18;26.35;;;23.98;;
68655;SDS011;55638;51.122;13.606;2022-11-18T09:00:50;27.00;;;24.40;;
68655;SDS011;55638;51.122;13.606;2022-11-18T09:02:23;27.58;;;24.95;;
68655;SDS011;55638;51.122;13.606;2022-11-18T09:03:55;26.17;;;23.70;;
68655;SDS011;55638;51.122;13.606;2022-11-18T09:05:28;27.58;;;25.08;;
68655;SDS011;55638;51.122;13.606;2022-11-18T09:07:00;27.17;;;24.67;;
68655;SDS011;55638;51.122;13.606;2022-11-18T09:08:32;25.65;;;23.33;;
68655;SDS011;55638;51.122;13.606;2022-11-18T09:10:04;26.10;;;23.75;;
68655;SDS011;55638;51.122;13.606;2022-11-18T09:11:37;24.48;;;22.30;;
68655;SDS011;55638;51.122;13.606;2022-11-18T09:13:10;25.20;;;22.65;;
68655;SDS011;55638;51.122;13.606;2022-11-18T09:15:01;26.10;;;23.45;;
68655;SDS011;55638;51.122;13.606;2022-11-18T09:16:44;26.90;;;24.30;;
68655;SDS011;55638;51.122;13.606;2022-11-18T09:18:16;26.48;;;24.08;;
68655;SDS011;55638;51.122;13.606;2022-11-18T09:19:48;27.55;;;24.85;;
68655;SDS011;55638;51.122;13.606;2022-11-18T09:21:20;25.50;;;23.20;;
68655;SDS011;55638;51.122;13.606;2022-11-18T09:22:51;27.02;;;24.73;;
68655;SDS011;55638;51.122;13.606;2022-11-18T09:24:23;23.88;;;21.77;;
68655;SDS011;55638;51.122;13.606;2022-11-18T09:25:56;35.75;;;32.88;;
68655;SDS011;55638;51.122;13.606;2022-11-18T09:27:31;26.80;;;24.30;;
68655;SDS011;55638;51.122;13.606;2022-11-18T09:29:03;26.45;;;23.92;;
68655;SDS011;55638;51.122;13.606;2022-11-18T09:30:35;26.38;;;23.77;;
68655;SDS011;55638;51.122;13.606;2022-11-18T09:32:07;24.60;;;22.27;;
68655;SDS011;55638;51.122;13.606;2022-11-18T09:33:39;26.90;;;24.20;;
68655;SDS011;55638;51.122;13.606;2022-11-18T09:35:12;26.25;;;23.77;;
68655;SDS011;55638;51.122;13.606;2022-11-18T09:36:44;25.58;;;23.13;;
68655;SDS011;55638;51.122;13.606;2022-11-18T09:38:16;26.35;;;23.77;;